Terminal Aerodrome Forecast
Issued by NWS

Current Version | Previous Version | Graphics & Text | Print | Product List | Glossary On
Versions: 1 2 3 4 5 6 7 8 9 10 11 12 13 14 15 16 17 18 19 20 21 22 23 24
000
FTUS41 KPBZ 271100
TAFHLG
TAF
KHLG 271120Z 2712/2812 32008KT P6SM OVC010
      TEMPO 2712/2715 3SM -SN
     FM271700 33012KT P6SM OVC025
     FM280400 34008KT P6SM BKN025=

USA.gov is the U.S. government's official web portal to all federal, state and local government web resources and services.